Time;durP1;ratioP1;P1;durP2;ratioP2;P2;SDS_P1;SDS_P2;PMS_P1;PMS_P2;Temp;Humidity;BMP_temperature;BMP_pressure;BME280_temperature;BME280_humidity;BME280_pressure;Samples;Min_cycle;Max_cycle;Signal;HPM_P1;HPM_P2
2023/10/31 00:01:50;;;;;;;0.70;0.70;;;11.50;99.90;;;;;;4977765;28;20206;-31
2023/10/31 00:04:16;;;;;;;1.10;0.80;;;11.50;99.90;;;;;;5005640;28;20187;-32
2023/10/31 00:06:42;;;;;;;1.07;0.80;;;11.50;99.90;;;;;;4973666;28;20260;-31
2023/10/31 00:09:10;;;;;;;1.00;0.80;;;11.50;99.90;;;;;;4985021;28;20211;-31
2023/10/31 00:11:36;;;;;;;0.83;0.60;;;11.50;99.90;;;;;;5025068;28;20206;-30
2023/10/31 00:14:02;;;;;;;0.60;0.47;;;11.50;99.90;;;;;;5004563;28;20215;-31
2023/10/31 00:16:28;;;;;;;1.50;0.77;;;11.50;99.90;;;;;;5012783;28;20237;-31
2023/10/31 00:18:54;;;;;;;1.20;0.90;;;11.40;99.90;;;;;;4995085;28;20182;-31
2023/10/31 00:21:20;;;;;;;2.20;1.00;;;11.40;99.90;;;;;;5032115;28;20244;-32
2023/10/31 00:23:49;;;;;;;1.00;0.43;;;11.40;99.90;;;;;;5010478;28;20719;-32
2023/10/31 00:26:15;;;;;;;2.37;1.00;;;11.40;99.90;;;;;;5004846;28;20197;-32
2023/10/31 00:28:48;;;;;;;1.13;0.63;;;11.40;99.90;;;;;;5007353;28;20189;-31
2023/10/31 00:31:14;;;;;;;0.83;0.50;;;11.30;99.90;;;;;;4989817;28;20219;-32
2023/10/31 00:33:40;;;;;;;0.97;0.50;;;11.30;99.90;;;;;;5002386;28;20213;-31
2023/10/31 00:36:07;;;;;;;1.50;0.47;;;11.30;99.90;;;;;;4992563;28;20660;-31
2023/10/31 00:38:33;;;;;;;0.50;0.50;;;11.30;99.90;;;;;;4985133;28;20255;-32
2023/10/31 00:40:59;;;;;;;0.80;0.50;;;11.30;99.90;;;;;;4991562;28;20198;-31
2023/10/31 00:43:25;;;;;;;0.50;0.50;;;11.30;99.90;;;;;;4975990;28;20191;-32
2023/10/31 00:45:51;;;;;;;0.57;0.50;;;11.30;99.90;;;;;;4982165;28;20240;-32
2023/10/31 00:48:17;;;;;;;0.40;0.40;;;11.30;99.90;;;;;;4996416;28;20189;-30
2023/10/31 00:50:43;;;;;;;0.50;0.50;;;11.30;99.90;;;;;;4999074;28;20264;-31
2023/10/31 00:53:10;;;;;;;0.60;0.60;;;11.20;99.90;;;;;;4993773;28;20213;-31
2023/10/31 00:55:36;;;;;;;0.50;0.50;;;11.20;99.90;;;;;;5002029;28;20209;-31
2023/10/31 00:58:01;;;;;;;0.57;0.50;;;11.20;99.90;;;;;;4994702;28;20251;-31
2023/10/31 01:00:27;;;;;;;1.33;0.40;;;11.20;99.90;;;;;;4982017;28;20214;-32
2023/10/31 01:02:53;;;;;;;0.57;0.50;;;11.20;99.90;;;;;;4994044;28;20187;-32
2023/10/31 01:05:19;;;;;;;2.40;0.70;;;11.20;99.90;;;;;;4997177;28;20193;-31
2023/10/31 01:07:45;;;;;;;0.50;0.50;;;11.20;99.90;;;;;;4993118;28;20213;-28
2023/10/31 01:10:10;;;;;;;0.67;0.60;;;11.20;99.90;;;;;;4991586;28;20199;-30
2023/10/31 01:12:37;;;;;;;1.07;0.40;;;11.20;99.90;;;;;;4985296;28;20750;-30
2023/10/31 01:15:03;;;;;;;1.97;0.60;;;11.20;99.90;;;;;;4989500;28;20187;-30
2023/10/31 01:17:29;;;;;;;0.40;0.40;;;11.20;99.90;;;;;;5010112;28;20200;-30
2023/10/31 01:19:55;;;;;;;0.70;0.40;;;11.10;99.90;;;;;;5004623;28;20250;-30
2023/10/31 01:22:21;;;;;;;1.60;0.40;;;11.10;99.90;;;;;;4993257;28;20209;-29
2023/10/31 01:24:47;;;;;;;0.63;0.57;;;11.00;99.90;;;;;;5001273;28;20179;-31
2023/10/31 01:27:13;;;;;;;0.83;0.60;;;11.00;99.90;;;;;;4977136;28;20186;-30
2023/10/31 01:29:39;;;;;;;0.47;0.47;;;11.00;99.90;;;;;;4986127;28;20306;-29
2023/10/31 01:32:05;;;;;;;0.40;0.40;;;10.90;99.90;;;;;;4989938;28;20207;-29
2023/10/31 01:34:31;;;;;;;0.50;0.40;;;11.00;99.90;;;;;;5014733;28;20647;-29
2023/10/31 01:36:56;;;;;;;0.50;0.50;;;10.90;99.90;;;;;;4992903;28;20179;-31
2023/10/31 01:39:22;;;;;;;0.70;0.40;;;10.90;99.90;;;;;;4993091;28;20574;-32
2023/10/31 01:41:48;;;;;;;0.60;0.40;;;10.90;99.90;;;;;;4990611;28;20185;-32
2023/10/31 01:44:14;;;;;;;1.83;0.50;;;10.90;99.90;;;;;;5001384;28;20202;-31
2023/10/31 01:46:40;;;;;;;0.53;0.47;;;11.00;99.90;;;;;;4990749;28;20195;-30
2023/10/31 01:49:06;;;;;;;1.10;0.70;;;11.00;99.90;;;;;;4961015;28;20191;-32
2023/10/31 01:51:32;;;;;;;1.30;0.63;;;11.00;99.90;;;;;;4993447;28;20249;-31
2023/10/31 01:53:58;;;;;;;1.43;0.60;;;10.90;99.90;;;;;;4993532;28;20202;-32
2023/10/31 01:56:25;;;;;;;0.77;0.50;;;10.90;99.90;;;;;;5001564;28;20201;-31
2023/10/31 01:58:53;;;;;;;1.00;0.50;;;10.90;99.90;;;;;;4994636;28;20245;-31
2023/10/31 02:01:19;;;;;;;0.70;0.60;;;10.90;99.90;;;;;;4988964;28;20206;-31
2023/10/31 02:03:45;;;;;;;0.83;0.50;;;10.90;99.90;;;;;;4984460;28;20192;-31
2023/10/31 02:06:11;;;;;;;0.57;0.57;;;10.90;99.90;;;;;;4992351;28;20186;-31
2023/10/31 02:08:37;;;;;;;0.90;0.50;;;10.90;99.90;;;;;;4990264;28;20188;-31
2023/10/31 02:11:03;;;;;;;0.73;0.60;;;11.00;99.90;;;;;;5000842;28;20226;-31
2023/10/31 02:13:29;;;;;;;0.97;0.53;;;11.00;99.90;;;;;;4997308;28;20179;-30
2023/10/31 02:15:55;;;;;;;1.67;0.70;;;10.90;99.90;;;;;;4989269;28;20278;-31
2023/10/31 02:18:21;;;;;;;1.23;0.80;;;11.00;99.90;;;;;;4990198;28;20183;-32
2023/10/31 02:20:48;;;;;;;0.50;0.50;;;11.00;99.90;;;;;;5005192;28;20285;-32
2023/10/31 02:23:16;;;;;;;0.50;0.50;;;11.00;99.90;;;;;;4981947;28;20354;-31
2023/10/31 02:25:41;;;;;;;0.60;0.60;;;11.00;99.90;;;;;;5007865;28;20183;-32
2023/10/31 02:28:07;;;;;;;1.30;0.40;;;11.00;99.90;;;;;;5002662;28;20186;-31
2023/10/31 02:30:34;;;;;;;0.50;0.50;;;11.00;99.90;;;;;;4993747;28;20207;-31
2023/10/31 02:33:01;;;;;;;0.80;0.60;;;11.00;99.90;;;;;;4981650;28;20244;-31
2023/10/31 02:35:27;;;;;;;0.57;0.57;;;11.00;99.90;;;;;;4985785;28;20228;-30
2023/10/31 02:37:53;;;;;;;1.43;0.70;;;10.90;99.90;;;;;;4996163;28;20183;-30
2023/10/31 02:40:19;;;;;;;0.60;0.60;;;10.90;99.90;;;;;;4996259;28;20682;-31
2023/10/31 02:42:45;;;;;;;1.80;0.60;;;10.90;99.90;;;;;;4990460;28;20236;-31
2023/10/31 02:45:11;;;;;;;1.17;0.70;;;10.90;99.90;;;;;;4984297;28;20216;-31
2023/10/31 02:47:37;;;;;;;0.90;0.50;;;10.90;99.90;;;;;;5004798;28;20204;-32
2023/10/31 02:50:03;;;;;;;1.27;0.67;;;10.90;99.90;;;;;;4983248;28;20234;-31
2023/10/31 02:52:29;;;;;;;0.50;0.50;;;10.90;99.90;;;;;;4999693;28;20210;-31
2023/10/31 02:54:55;;;;;;;0.80;0.60;;;10.90;99.90;;;;;;5016363;28;20211;-31
2023/10/31 02:57:21;;;;;;;1.03;0.63;;;10.90;99.90;;;;;;4996192;28;21501;-31
2023/10/31 02:59:46;;;;;;;0.77;0.63;;;10.90;99.90;;;;;;4972277;28;20198;-31
2023/10/31 03:02:12;;;;;;;1.53;0.70;;;10.90;99.90;;;;;;4995448;28;20189;-31
2023/10/31 03:04:38;;;;;;;0.50;0.50;;;10.90;99.90;;;;;;4989605;28;20186;-31
2023/10/31 03:07:04;;;;;;;1.77;0.70;;;10.90;99.90;;;;;;4982731;28;20175;-32
2023/10/31 03:09:30;;;;;;;1.57;0.57;;;10.90;99.90;;;;;;4987784;28;20211;-31
2023/10/31 03:11:55;;;;;;;1.20;0.60;;;10.90;99.90;;;;;;4994333;28;20206;-31
2023/10/31 03:14:21;;;;;;;0.80;0.50;;;10.90;99.90;;;;;;4984678;28;20281;-31
2023/10/31 03:16:47;;;;;;;1.53;0.60;;;10.90;99.90;;;;;;4973844;28;20183;-31
2023/10/31 03:19:13;;;;;;;0.83;0.60;;;10.90;99.90;;;;;;4995427;28;20171;-30
2023/10/31 03:21:39;;;;;;;1.23;0.60;;;10.80;99.90;;;;;;4987498;28;20175;-30
2023/10/31 03:24:05;;;;;;;1.00;0.60;;;10.80;99.90;;;;;;4988011;28;20190;-32
2023/10/31 03:26:31;;;;;;;1.67;0.70;;;10.80;99.90;;;;;;4984528;28;20188;-31
2023/10/31 03:28:57;;;;;;;0.60;0.60;;;10.70;99.90;;;;;;5003006;28;20212;-31
2023/10/31 03:31:23;;;;;;;2.10;0.80;;;10.70;99.90;;;;;;5000574;28;20306;-31
2023/10/31 03:33:51;;;;;;;1.03;0.80;;;10.70;99.90;;;;;;4986444;28;20244;-31
2023/10/31 03:36:17;;;;;;;1.77;1.10;;;10.70;99.90;;;;;;4991530;28;20190;-31
2023/10/31 03:38:43;;;;;;;1.17;0.70;;;10.70;99.90;;;;;;4988104;28;20328;-31
2023/10/31 03:41:09;;;;;;;1.57;0.57;;;10.70;99.90;;;;;;4975730;28;20289;-30
2023/10/31 03:43:35;;;;;;;1.90;0.50;;;10.70;99.90;;;;;;4980268;28;20225;-31
2023/10/31 03:46:01;;;;;;;1.30;0.60;;;10.70;99.90;;;;;;4995868;28;20195;-31
2023/10/31 03:48:27;;;;;;;0.50;0.50;;;10.70;99.90;;;;;;4993520;28;20195;-31
2023/10/31 03:50:53;;;;;;;1.30;0.70;;;10.70;99.90;;;;;;4985887;28;20298;-31
2023/10/31 03:53:19;;;;;;;0.80;0.70;;;10.60;99.90;;;;;;4976825;28;20278;-31
2023/10/31 03:55:45;;;;;;;2.07;0.60;;;10.60;99.90;;;;;;4979411;28;20186;-31
2023/10/31 03:58:11;;;;;;;1.87;0.70;;;10.70;99.90;;;;;;4984842;28;20171;-30
2023/10/31 04:00:38;;;;;;;0.77;0.70;;;10.60;99.90;;;;;;4994693;28;20209;-31
2023/10/31 04:03:04;;;;;;;0.87;0.80;;;10.60;99.90;;;;;;4986244;28;20186;-31
2023/10/31 04:05:30;;;;;;;1.70;0.90;;;10.60;99.90;;;;;;4989761;28;20205;-32
2023/10/31 04:07:56;;;;;;;1.97;0.90;;;10.60;99.90;;;;;;4994911;28;20197;-30
2023/10/31 04:10:22;;;;;;;0.90;0.90;;;10.60;99.90;;;;;;5020278;28;20216;-31
2023/10/31 04:12:48;;;;;;;0.93;0.80;;;10.70;99.90;;;;;;4986748;28;20183;-31
2023/10/31 04:15:14;;;;;;;2.00;1.00;;;10.70;99.90;;;;;;4992690;28;20188;-30
2023/10/31 04:17:40;;;;;;;1.60;0.80;;;10.60;99.90;;;;;;4990764;28;20185;-30
2023/10/31 04:20:06;;;;;;;1.20;0.87;;;10.60;99.90;;;;;;4988650;28;20207;-30
2023/10/31 04:22:32;;;;;;;1.10;0.77;;;10.60;99.90;;;;;;4987082;28;20188;-30
2023/10/31 04:24:58;;;;;;;1.03;0.70;;;10.70;99.90;;;;;;4981371;28;20275;-30
2023/10/31 04:27:24;;;;;;;1.37;0.70;;;10.60;99.90;;;;;;4990698;28;20186;-30
2023/10/31 04:29:49;;;;;;;1.57;0.70;;;10.60;99.90;;;;;;4992789;28;20225;-30
2023/10/31 04:32:15;;;;;;;0.67;0.50;;;10.50;99.90;;;;;;4990276;28;20236;-30
2023/10/31 04:34:41;;;;;;;0.60;0.50;;;10.50;99.90;;;;;;5006671;28;20178;-30
2023/10/31 04:37:07;;;;;;;0.90;0.60;;;10.50;99.90;;;;;;5012564;28;20179;-30
2023/10/31 04:39:33;;;;;;;0.40;0.40;;;10.50;99.90;;;;;;4994198;28;20206;-30
2023/10/31 04:41:59;;;;;;;2.20;0.60;;;10.40;99.90;;;;;;4990112;28;20187;-30
2023/10/31 04:44:24;;;;;;;2.43;0.80;;;10.40;99.90;;;;;;5002481;28;20256;-30
2023/10/31 04:46:50;;;;;;;1.23;0.70;;;10.40;99.90;;;;;;4987759;28;20191;-30
2023/10/31 04:49:16;;;;;;;1.30;0.70;;;10.30;99.90;;;;;;4994669;28;20253;-30
2023/10/31 04:51:42;;;;;;;0.70;0.70;;;10.30;99.90;;;;;;5012729;28;20252;-30
2023/10/31 04:54:08;;;;;;;1.57;0.67;;;10.30;99.90;;;;;;4976312;28;20251;-30
2023/10/31 04:56:34;;;;;;;1.07;0.60;;;10.30;99.90;;;;;;4991988;28;20195;-31
2023/10/31 04:59:00;;;;;;;3.40;0.67;;;10.30;99.90;;;;;;5004931;28;20190;-31
2023/10/31 05:01:25;;;;;;;1.57;0.50;;;10.30;99.90;;;;;;4995133;28;20193;-31
2023/10/31 05:03:52;;;;;;;0.57;0.50;;;10.20;99.90;;;;;;4978484;28;20187;-30
2023/10/31 05:06:22;;;;;;;2.93;0.43;;;10.20;99.90;;;;;;4988183;28;20253;-31
2023/10/31 05:08:49;;;;;;;2.13;0.60;;;10.20;99.90;;;;;;4977118;28;20189;-31
2023/10/31 05:11:18;;;;;;;0.50;0.50;;;10.20;99.90;;;;;;5025485;28;20246;-30
2023/10/31 05:13:45;;;;;;;1.37;0.90;;;10.20;99.90;;;;;;4981012;28;20171;-30
2023/10/31 05:16:11;;;;;;;0.70;0.70;;;10.10;99.90;;;;;;4992160;28;20271;-31
2023/10/31 05:18:38;;;;;;;1.07;0.80;;;10.10;99.90;;;;;;4992789;28;20186;-31
2023/10/31 05:21:05;;;;;;;2.27;0.83;;;10.00;99.90;;;;;;4989437;28;20281;-31
2023/10/31 05:23:31;;;;;;;0.50;0.50;;;10.00;99.90;;;;;;4992148;28;20287;-30
2023/10/31 05:25:56;;;;;;;0.77;0.77;;;10.00;99.90;;;;;;4988062;28;20269;-30
2023/10/31 05:28:23;;;;;;;1.03;0.60;;;10.00;99.90;;;;;;4992915;28;20195;-31
2023/10/31 05:30:49;;;;;;;1.63;0.70;;;10.00;99.90;;;;;;5029566;23;20264;-33
2023/10/31 05:33:16;;;;;;;2.57;0.90;;;9.90;99.90;;;;;;5026840;28;20287;-33
2023/10/31 05:35:43;;;;;;;2.07;1.73;;;9.90;99.90;;;;;;5033130;28;20673;-34
2023/10/31 05:38:09;;;;;;;3.60;3.30;;;9.90;99.90;;;;;;5033007;28;20185;-33
2023/10/31 05:40:35;;;;;;;5.67;2.47;;;9.90;99.90;;;;;;5025271;28;20208;-33
2023/10/31 05:43:02;;;;;;;3.63;3.07;;;9.80;99.90;;;;;;5015398;28;20189;-33
2023/10/31 05:45:29;;;;;;;6.03;4.17;;;9.80;99.90;;;;;;5016615;28;20215;-33
2023/10/31 05:47:55;;;;;;;15.57;8.90;;;9.80;99.90;;;;;;5048280;28;20199;-33
2023/10/31 05:50:21;;;;;;;11.23;6.70;;;9.80;99.90;;;;;;5015944;28;20209;-32
2023/10/31 05:52:47;;;;;;;9.63;5.63;;;9.80;99.90;;;;;;5015085;28;20178;-33
2023/10/31 05:55:14;;;;;;;15.97;10.63;;;9.80;99.90;;;;;;5049761;28;20171;-33
2023/10/31 05:57:40;;;;;;;9.33;5.67;;;9.80;99.90;;;;;;5018353;28;20189;-33
2023/10/31 06:00:08;;;;;;;3.73;2.40;;;9.70;99.90;;;;;;5019549;28;20295;-35
2023/10/31 06:02:37;;;;;;;1.43;1.13;;;9.70;99.90;;;;;;5033119;28;20281;-33
2023/10/31 06:05:04;;;;;;;1.13;0.83;;;9.70;99.90;;;;;;5038657;28;20245;-33
2023/10/31 06:07:30;;;;;;;2.33;0.90;;;9.70;99.90;;;;;;5019035;28;20176;-33
2023/10/31 06:09:56;;;;;;;5.50;5.00;;;9.70;99.90;;;;;;5012811;28;20198;-33
2023/10/31 06:12:22;;;;;;;4.33;4.00;;;9.70;99.90;;;;;;5032599;28;20209;-33
2023/10/31 06:14:47;;;;;;;4.93;3.67;;;9.70;99.90;;;;;;5016047;28;20199;-33
2023/10/31 06:17:13;;;;;;;4.60;3.63;;;9.70;99.90;;;;;;5016003;28;20190;-33
2023/10/31 06:19:45;;;;;;;7.83;4.10;;;9.60;99.90;;;;;;5014617;28;20267;-33
2023/10/31 06:22:11;;;;;;;6.13;4.63;;;9.60;99.90;;;;;;5028268;28;20251;-34
2023/10/31 06:24:37;;;;;;;2.93;1.90;;;9.60;99.90;;;;;;5032149;28;20255;-33
2023/10/31 06:27:03;;;;;;;1.43;1.10;;;9.60;99.90;;;;;;5049158;28;20277;-33
2023/10/31 06:29:29;;;;;;;2.80;2.00;;;9.60;99.90;;;;;;5028107;28;20194;-32
2023/10/31 06:31:54;;;;;;;3.10;1.40;;;9.70;99.90;;;;;;5028776;28;20204;-33
2023/10/31 06:34:21;;;;;;;1.83;1.20;;;9.70;99.90;;;;;;5026394;28;20189;-33
2023/10/31 06:36:48;;;;;;;2.20;1.47;;;9.70;99.90;;;;;;5047746;28;20185;-33
2023/10/31 06:39:14;;;;;;;2.03;1.00;;;9.70;99.90;;;;;;5022837;28;20185;-32
2023/10/31 06:41:41;;;;;;;0.93;0.80;;;9.70;99.90;;;;;;5016349;28;20216;-33
2023/10/31 06:44:06;;;;;;;1.67;1.00;;;9.80;99.90;;;;;;5017009;28;20178;-33
2023/10/31 06:46:32;;;;;;;2.83;1.10;;;9.80;99.90;;;;;;5035708;28;20711;-33
2023/10/31 06:48:58;;;;;;;2.60;1.20;;;9.80;99.90;;;;;;5012979;28;20193;-32
2023/10/31 06:51:24;;;;;;;1.37;1.10;;;9.80;99.90;;;;;;5025137;28;20226;-34
2023/10/31 06:53:51;;;;;;;3.43;1.47;;;9.80;99.90;;;;;;5043181;28;20208;-32
2023/10/31 06:56:17;;;;;;;1.80;1.30;;;9.80;99.90;;;;;;5018628;28;20185;-32
2023/10/31 06:58:42;;;;;;;2.43;1.40;;;9.90;99.90;;;;;;5018116;28;20191;-32
2023/10/31 07:01:09;;;;;;;1.83;1.50;;;9.90;99.90;;;;;;5034711;28;20212;-32
2023/10/31 07:03:35;;;;;;;2.03;1.00;;;9.90;99.90;;;;;;5022513;28;20184;-32
2023/10/31 07:06:00;;;;;;;0.90;0.70;;;9.90;99.90;;;;;;5025379;28;20239;-32
2023/10/31 07:08:26;;;;;;;1.97;1.00;;;9.90;99.90;;;;;;5031468;28;20187;-32
2023/10/31 07:10:52;;;;;;;1.83;0.90;;;9.90;99.90;;;;;;5034142;28;20215;-32
2023/10/31 07:13:18;;;;;;;2.17;0.97;;;9.90;99.90;;;;;;5053907;28;20183;-32
2023/10/31 07:15:44;;;;;;;5.60;1.60;;;9.90;99.90;;;;;;5034187;28;20187;-32
2023/10/31 07:18:10;;;;;;;5.77;1.10;;;9.90;99.90;;;;;;5017882;28;20215;-32
2023/10/31 07:20:36;;;;;;;6.00;1.20;;;10.00;99.90;;;;;;5013752;28;20236;-32
2023/10/31 07:23:02;;;;;;;4.23;1.30;;;10.00;99.90;;;;;;5038163;28;20209;-32
2023/10/31 07:25:28;;;;;;;2.77;1.10;;;9.90;99.90;;;;;;5037626;28;20190;-32
2023/10/31 07:27:54;;;;;;;1.57;1.20;;;10.00;99.90;;;;;;5022190;28;20181;-32
2023/10/31 07:30:19;;;;;;;2.57;1.10;;;10.00;99.90;;;;;;5020160;28;20277;-32
2023/10/31 07:32:45;;;;;;;2.47;1.37;;;10.00;99.90;;;;;;5034385;28;20178;-32
2023/10/31 07:35:11;;;;;;;2.10;1.27;;;10.00;99.90;;;;;;5035518;28;20244;-33
2023/10/31 07:37:37;;;;;;;2.10;1.23;;;10.00;99.90;;;;;;5016328;28;20174;-34
2023/10/31 07:40:04;;;;;;;4.00;1.30;;;10.00;99.90;;;;;;5015168;28;20205;-33
2023/10/31 07:42:30;;;;;;;2.17;1.20;;;10.00;99.90;;;;;;5052156;28;20179;-33
2023/10/31 07:44:55;;;;;;;4.90;1.47;;;10.10;99.90;;;;;;5019159;28;20280;-32
2023/10/31 07:47:21;;;;;;;1.47;1.10;;;10.10;99.90;;;;;;5042659;28;20212;-32
2023/10/31 07:49:48;;;;;;;1.93;1.10;;;10.10;99.90;;;;;;5016884;28;20211;-35
2023/10/31 07:52:15;;;;;;;2.40;1.20;;;10.10;99.90;;;;;;5014164;28;20225;-32
2023/10/31 07:54:41;;;;;;;2.73;1.13;;;10.10;99.90;;;;;;5008906;28;20183;-32
2023/10/31 07:57:09;;;;;;;1.47;1.20;;;10.20;99.90;;;;;;5050847;28;20192;-32
2023/10/31 07:59:35;;;;;;;3.70;1.23;;;10.20;99.90;;;;;;5041546;28;20184;-32
2023/10/31 08:02:02;;;;;;;1.90;1.40;;;10.20;99.90;;;;;;5017074;28;20185;-32
2023/10/31 08:04:29;;;;;;;3.17;1.40;;;10.20;99.90;;;;;;5013664;28;20187;-32
2023/10/31 08:06:56;;;;;;;2.50;1.20;;;10.30;99.90;;;;;;5014743;28;20188;-35
2023/10/31 08:09:22;;;;;;;1.33;1.00;;;10.30;99.90;;;;;;5034646;28;20248;-32
2023/10/31 08:11:52;;;;;;;2.17;0.97;;;10.30;99.90;;;;;;5020339;28;20203;-32
2023/10/31 08:14:18;;;;;;;4.70;1.30;;;10.40;99.90;;;;;;5021879;28;20199;-32
2023/10/31 08:16:44;;;;;;;3.33;1.27;;;10.40;99.90;;;;;;5018467;28;20227;-32
2023/10/31 08:19:12;;;;;;;2.37;1.30;;;10.40;99.90;;;;;;5015039;28;20207;-32
2023/10/31 08:21:38;;;;;;;1.77;1.03;;;10.50;99.90;;;;;;5017667;28;20293;-32
2023/10/31 08:24:05;;;;;;;1.60;1.10;;;10.50;99.90;;;;;;5033824;28;20212;-32
2023/10/31 08:26:32;;;;;;;1.57;1.03;;;10.60;99.90;;;;;;5044832;28;20221;-32
2023/10/31 08:28:59;;;;;;;3.20;1.20;;;10.60;99.90;;;;;;5020251;28;20207;-32
2023/10/31 08:31:25;;;;;;;3.17;1.80;;;10.60;99.90;;;;;;5031411;28;20225;-32
2023/10/31 08:33:51;;;;;;;2.07;1.20;;;10.70;99.90;;;;;;5028698;28;20194;-32
2023/10/31 08:36:17;;;;;;;4.20;1.10;;;10.70;99.90;;;;;;5022681;28;20182;-32
2023/10/31 08:38:49;;;;;;;1.93;0.90;;;10.70;99.90;;;;;;5019962;28;20191;-32
2023/10/31 08:41:19;;;;;;;3.77;1.50;;;10.80;99.90;;;;;;5019475;28;20212;-33
2023/10/31 08:43:59;;;;;;;3.13;1.23;;;10.80;99.90;;;;;;5033956;28;20176;-33
2023/10/31 08:46:33;;;;;;;2.77;1.20;;;10.80;99.90;;;;;;5020642;28;20641;-32
2023/10/31 08:49:00;;;;;;;3.47;1.07;;;10.90;99.90;;;;;;5015419;28;20187;-33
2023/10/31 08:51:26;;;;;;;2.33;1.20;;;10.90;99.90;;;;;;5036554;28;20244;-33
2023/10/31 08:53:57;;;;;;;2.17;1.33;;;10.90;99.90;;;;;;5030511;28;20169;-32
2023/10/31 08:56:36;;;;;;;1.97;0.80;;;10.90;99.90;;;;;;5061415;28;20175;-33
2023/10/31 08:59:16;;;;;;;2.23;0.90;;;11.00;99.90;;;;;;5057932;28;20193;-32
2023/10/31 09:01:45;;;;;;;3.40;1.00;;;11.10;99.90;;;;;;5031529;28;20190;-33
2023/10/31 09:04:19;;;;;;;7.07;2.00;;;11.20;99.90;;;;;;5053865;28;20208;-34
2023/10/31 09:06:49;;;;;;;4.23;1.93;;;11.30;99.90;;;;;;5046042;28;20184;-31
2023/10/31 09:09:16;;;;;;;3.17;1.93;;;11.30;99.90;;;;;;5037030;28;20223;-32
2023/10/31 09:11:43;;;;;;;1.93;1.43;;;11.40;99.90;;;;;;5017805;28;20756;-32
2023/10/31 09:14:12;;;;;;;3.77;1.70;;;11.40;99.90;;;;;;5022953;28;20182;-32
2023/10/31 09:16:47;;;;;;;2.33;1.50;;;11.40;99.90;;;;;;5050604;28;20181;-33
2023/10/31 09:19:13;;;;;;;2.00;1.10;;;11.50;99.90;;;;;;5016053;28;20242;-34
2023/10/31 09:21:39;;;;;;;4.87;1.20;;;11.50;99.90;;;;;;5034557;28;20295;-33
2023/10/31 09:24:07;;;;;;;6.80;1.23;;;11.50;99.90;;;;;;5046951;28;20184;-33
2023/10/31 09:26:33;;;;;;;3.00;1.30;;;11.50;99.90;;;;;;5020042;28;20186;-33
2023/10/31 09:28:59;;;;;;;5.20;1.47;;;11.50;99.90;;;;;;5027968;28;20190;-33
2023/10/31 09:31:26;;;;;;;3.50;1.40;;;11.50;99.90;;;;;;5021712;28;20206;-34
2023/10/31 09:33:52;;;;;;;3.67;1.60;;;11.50;99.90;;;;;;5027517;28;20186;-33
2023/10/31 09:36:19;;;;;;;3.67;1.50;;;11.50;99.90;;;;;;5022495;28;20188;-33
2023/10/31 09:38:45;;;;;;;1.73;0.90;;;11.50;99.90;;;;;;5015469;28;20189;-34
2023/10/31 09:41:15;;;;;;;2.20;0.93;;;11.50;99.90;;;;;;5023491;28;20264;-34
2023/10/31 09:43:42;;;;;;;4.43;1.30;;;11.50;99.90;;;;;;5018846;28;20666;-34
2023/10/31 09:46:09;;;;;;;5.87;1.20;;;11.60;99.90;;;;;;5036747;28;20181;-34
2023/10/31 09:48:35;;;;;;;3.70;1.90;;;11.70;99.90;;;;;;5038123;28;20202;-34
2023/10/31 09:51:02;;;;;;;3.93;1.20;;;11.80;99.90;;;;;;5032837;28;20255;-33
2023/10/31 09:53:31;;;;;;;6.13;1.40;;;11.90;99.90;;;;;;5014420;28;20264;-34
2023/10/31 09:55:57;;;;;;;2.40;1.47;;;12.00;99.90;;;;;;5032166;28;20177;-33
2023/10/31 09:58:24;;;;;;;6.87;1.63;;;12.00;99.90;;;;;;5054309;28;20242;-34
2023/10/31 10:00:50;;;;;;;1.80;1.13;;;12.00;99.90;;;;;;5023087;28;20292;-33
2023/10/31 10:03:16;;;;;;;3.17;1.30;;;12.00;99.90;;;;;;5032337;28;20256;-33
2023/10/31 10:05:46;;;;;;;2.27;0.93;;;12.00;99.90;;;;;;5029414;28;20269;-33
2023/10/31 10:08:12;;;;;;;3.63;1.40;;;12.10;99.90;;;;;;5019500;28;20188;-34
2023/10/31 10:10:38;;;;;;;6.63;1.40;;;12.20;99.90;;;;;;5031843;28;20209;-33
2023/10/31 10:13:05;;;;;;;5.67;1.17;;;12.10;99.90;;;;;;5020663;28;20185;-34
2023/10/31 10:15:48;;;;;;;2.83;1.10;;;12.10;99.90;;;;;;5039373;28;20182;-34
2023/10/31 10:18:39;;;;;;;3.00;1.00;;;12.20;99.90;;;;;;5006104;28;20631;-34
2023/10/31 10:21:06;;;;;;;3.67;1.30;;;12.20;99.90;;;;;;5055034;28;20208;-33
2023/10/31 10:23:33;;;;;;;2.50;1.33;;;12.20;99.90;;;;;;5030639;28;20189;-34
2023/10/31 10:26:00;;;;;;;2.57;1.47;;;12.30;99.90;;;;;;5035076;28;20203;-33
2023/10/31 10:28:26;;;;;;;2.97;1.40;;;12.30;99.90;;;;;;5028887;28;20178;-34
2023/10/31 10:30:55;;;;;;;3.37;1.37;;;12.40;99.90;;;;;;5039977;28;20216;-33
2023/10/31 10:33:22;;;;;;;1.53;0.80;;;12.60;99.90;;;;;;5013841;28;20282;-33
2023/10/31 10:35:48;;;;;;;2.33;0.80;;;12.80;99.90;;;;;;5033093;28;20189;-33
2023/10/31 10:38:16;;;;;;;4.37;1.17;;;12.80;99.90;;;;;;5022189;28;20178;-33
2023/10/31 10:40:44;;;;;;;4.33;1.00;;;12.90;99.90;;;;;;5045757;28;20202;-33
2023/10/31 10:43:23;;;;;;;2.63;1.10;;;12.90;99.90;;;;;;5045582;28;20197;-33
2023/10/31 10:45:59;;;;;;;2.77;0.90;;;13.00;99.90;;;;;;5038906;28;20181;-34
2023/10/31 10:48:26;;;;;;;2.27;0.87;;;13.10;99.90;;;;;;5044033;28;20181;-33
2023/10/31 10:51:25;;;;;;;1.27;0.80;;;13.20;99.90;;;;;;5021483;28;20217;-33
2023/10/31 10:54:11;;;;;;;1.70;0.70;;;13.30;99.90;;;;;;5022830;28;20223;-34
2023/10/31 10:56:56;;;;;;;1.20;0.60;;;13.40;99.90;;;;;;5041766;28;20282;-34
2023/10/31 10:59:36;;;;;;;2.17;0.50;;;13.40;99.90;;;;;;5045478;28;20286;-34
2023/10/31 11:02:04;;;;;;;1.23;0.60;;;13.40;99.90;;;;;;5028024;28;20269;-33
2023/10/31 11:04:32;;;;;;;1.80;0.60;;;13.30;99.90;;;;;;5043011;28;20186;-33
2023/10/31 11:06:58;;;;;;;0.80;0.50;;;13.20;99.90;;;;;;5035541;28;20186;-33
2023/10/31 11:09:25;;;;;;;0.70;0.60;;;13.20;99.90;;;;;;5023243;28;20194;-33
2023/10/31 11:11:52;;;;;;;0.97;0.50;;;13.30;99.90;;;;;;5018222;28;20304;-33
2023/10/31 11:14:18;;;;;;;2.50;0.87;;;13.50;99.90;;;;;;5021273;28;20273;-34
2023/10/31 11:16:51;;;;;;;1.53;0.60;;;13.60;99.90;;;;;;5035182;28;20182;-33
2023/10/31 11:19:17;;;;;;;1.03;0.70;;;13.80;99.90;;;;;;5009951;28;20269;-34
2023/10/31 11:21:54;;;;;;;0.60;0.53;;;13.90;99.90;;;;;;5024603;28;20205;-33
2023/10/31 11:24:23;;;;;;;1.27;0.70;;;14.10;99.90;;;;;;5047564;28;20268;-33
2023/10/31 11:26:57;;;;;;;0.57;0.53;;;14.20;99.90;;;;;;5020300;28;20182;-33
2023/10/31 11:29:23;;;;;;;1.07;0.60;;;14.00;99.90;;;;;;5047541;28;20186;-34
2023/10/31 11:31:50;;;;;;;1.43;0.47;;;14.00;99.90;;;;;;5034794;28;20214;-33
2023/10/31 11:34:18;;;;;;;0.60;0.60;;;13.90;99.90;;;;;;5036988;28;20209;-33
2023/10/31 11:36:48;;;;;;;2.07;0.80;;;13.70;99.90;;;;;;5034177;28;20190;-33
2023/10/31 11:39:17;;;;;;;1.20;0.70;;;13.60;99.90;;;;;;5031631;28;20175;-34
2023/10/31 11:41:50;;;;;;;1.00;0.40;;;13.60;99.90;;;;;;5015309;28;20279;-33
2023/10/31 11:44:18;;;;;;;1.50;0.50;;;13.60;99.90;;;;;;5039406;28;20213;-33
2023/10/31 11:46:50;;;;;;;0.77;0.50;;;13.60;99.90;;;;;;5019787;28;20193;-34
2023/10/31 11:49:16;;;;;;;1.27;0.80;;;13.70;99.90;;;;;;5021548;28;20190;-33
2023/10/31 11:51:46;;;;;;;1.10;0.50;;;13.80;99.90;;;;;;5013318;28;20210;-33
2023/10/31 11:54:17;;;;;;;1.43;0.47;;;13.90;99.90;;;;;;5021782;28;20198;-33
2023/10/31 11:56:52;;;;;;;1.33;0.50;;;14.00;99.90;;;;;;5039809;28;20176;-33
2023/10/31 11:59:19;;;;;;;0.57;0.37;;;14.10;99.90;;;;;;5022049;28;20188;-34
2023/10/31 12:01:47;;;;;;;1.17;0.57;;;14.30;99.90;;;;;;5038620;28;20335;-34
2023/10/31 12:04:23;;;;;;;0.30;0.30;;;14.30;99.90;;;;;;5023207;28;20268;-33
2023/10/31 12:07:05;;;;;;;3.23;0.80;;;14.30;99.90;;;;;;5022805;28;20181;-33
2023/10/31 12:09:31;;;;;;;1.07;0.50;;;14.40;99.90;;;;;;5022424;28;20213;-34
2023/10/31 12:11:58;;;;;;;2.13;0.60;;;14.50;99.90;;;;;;5046187;28;20222;-33
2023/10/31 12:14:24;;;;;;;1.53;0.70;;;14.50;99.90;;;;;;5045125;28;20181;-33
2023/10/31 12:16:50;;;;;;;0.73;0.40;;;14.50;99.90;;;;;;5020439;28;20178;-33
2023/10/31 12:19:16;;;;;;;2.03;0.80;;;14.40;99.90;;;;;;5033649;28;20205;-34
2023/10/31 12:21:49;;;;;;;0.60;0.60;;;14.30;99.90;;;;;;5043485;28;20247;-33
2023/10/31 12:24:17;;;;;;;0.90;0.43;;;14.30;99.90;;;;;;5022536;28;20190;-33
2023/10/31 12:26:44;;;;;;;0.30;0.30;;;14.20;99.90;;;;;;5033787;28;20190;-32
2023/10/31 12:29:20;;;;;;;0.33;0.30;;;14.20;99.90;;;;;;5021943;28;20190;-33
2023/10/31 12:31:48;;;;;;;1.37;0.40;;;14.30;99.90;;;;;;5032360;28;20209;-33
2023/10/31 12:34:15;;;;;;;1.10;0.50;;;14.50;99.90;;;;;;5033191;28;20174;-33
2023/10/31 12:36:43;;;;;;;0.57;0.50;;;14.70;99.90;;;;;;5019487;28;20196;-33
2023/10/31 12:39:12;;;;;;;0.73;0.50;;;14.70;99.90;;;;;;5044593;28;20263;-32
2023/10/31 12:41:40;;;;;;;0.93;0.43;;;14.80;99.90;;;;;;5018859;28;20647;-32
2023/10/31 12:44:09;;;;;;;0.93;0.53;;;14.70;99.90;;;;;;5036326;28;20186;-32
2023/10/31 12:46:38;;;;;;;1.33;0.37;;;14.70;99.90;;;;;;5015991;28;20186;-33
2023/10/31 12:49:13;;;;;;;1.37;0.60;;;14.70;99.90;;;;;;5016597;28;20185;-32